sensor_id;sensor_type;location;lat;lon;timestamp;pressure;altitude;pressure_sealevel;temperature;humidity
71195;BME280;58908;51.426;7.714;2023-05-10T00:00:09;99010.84;;;12.22;100.00
71195;BME280;58908;51.426;7.714;2023-05-10T00:02:36;99013.34;;;12.24;100.00
71195;BME280;58908;51.426;7.714;2023-05-10T00:05:04;99008.03;;;12.13;100.00
71195;BME280;58908;51.426;7.714;2023-05-10T00:07:30;99008.66;;;12.16;100.00
71195;BME280;58908;51.426;7.714;2023-05-10T00:09:56;99005.28;;;12.14;100.00
71195;BME280;58908;51.426;7.714;2023-05-10T00:12:22;99002.41;;;12.17;100.00
71195;BME280;58908;51.426;7.714;2023-05-10T00:14:49;98998.94;;;12.17;100.00
71195;BME280;58908;51.426;7.714;2023-05-10T00:17:15;99006.25;;;12.13;100.00
71195;BME280;58908;51.426;7.714;2023-05-10T00:19:43;99001.69;;;12.15;100.00
71195;BME280;58908;51.426;7.714;2023-05-10T00:22:09;98998.31;;;12.13;100.00
71195;BME280;58908;51.426;7.714;2023-05-10T00:24:35;99008.03;;;12.13;100.00
71195;BME280;58908;51.426;7.714;2023-05-10T00:27:01;99008.66;;;12.16;100.00
71195;BME280;58908;51.426;7.714;2023-05-10T00:29:29;99007.91;;;12.14;100.00
71195;BME280;58908;51.426;7.714;2023-05-10T00:31:55;99007.91;;;12.14;100.00
71195;BME280;58908;51.426;7.714;2023-05-10T00:34:21;98999.13;;;12.14;100.00
71195;BME280;58908;51.426;7.714;2023-05-10T00:36:49;98993.50;;;12.18;100.00
71195;BME280;58908;51.426;7.714;2023-05-10T00:39:15;99004.66;;;12.11;100.00
71195;BME280;58908;51.426;7.714;2023-05-10T00:41:41;99000.09;;;12.13;100.00
71195;BME280;58908;51.426;7.714;2023-05-10T00:44:07;98961.28;;;12.13;100.00
71195;BME280;58908;51.426;7.714;2023-05-10T00:46:34;98957.19;;;12.09;100.00
71195;BME280;58908;51.426;7.714;2023-05-10T00:49:01;98951.06;;;12.09;100.00
71195;BME280;58908;51.426;7.714;2023-05-10T00:51:27;98959.63;;;12.12;100.00
71195;BME280;58908;51.426;7.714;2023-05-10T00:53:55;98956.13;;;12.12;100.00
71195;BME280;58908;51.426;7.714;2023-05-10T00:56:21;98956.84;;;12.14;100.00
71195;BME280;58908;51.426;7.714;2023-05-10T00:58:49;98961.28;;;12.13;100.00
71195;BME280;58908;51.426;7.714;2023-05-10T01:01:15;98959.81;;;12.09;100.00
71195;BME280;58908;51.426;7.714;2023-05-10T01:03:42;98955.97;;;12.02;100.00
71195;BME280;58908;51.426;7.714;2023-05-10T01:06:08;98959.44;;;12.03;100.00
71195;BME280;58908;51.426;7.714;2023-05-10T01:08:36;98957.75;;;12.02;100.00
71195;BME280;58908;51.426;7.714;2023-05-10T01:11:04;98958.84;;;11.99;100.00
71195;BME280;58908;51.426;7.714;2023-05-10T01:13:31;98968.22;;;12.03;100.00
71195;BME280;58908;51.426;7.714;2023-05-10T01:15:59;98951.75;;;12.00;100.00
71195;BME280;58908;51.426;7.714;2023-05-10T01:18:26;98963.06;;;12.02;100.00
71195;BME280;58908;51.426;7.714;2023-05-10T01:20:55;98962.44;;;11.98;100.00
71195;BME280;58908;51.426;7.714;2023-05-10T01:23:36;98968.56;;;11.99;100.00
71195;BME280;58908;51.426;7.714;2023-05-10T01:29:01;98969.91;;;12.04;100.00
71195;BME280;58908;51.426;7.714;2023-05-10T01:31:39;98977.00;;;12.04;100.00
71195;BME280;58908;51.426;7.714;2023-05-10T01:34:09;98973.63;;;12.02;100.00
71195;BME280;58908;51.426;7.714;2023-05-10T01:36:40;98975.31;;;12.03;100.00
71195;BME280;58908;51.426;7.714;2023-05-10T01:39:11;98980.59;;;12.03;100.00
71195;BME280;58908;51.426;7.714;2023-05-10T01:41:39;98975.19;;;12.04;100.00
71195;BME280;58908;51.426;7.714;2023-05-10T01:44:09;98978.56;;;12.06;100.00
71195;BME280;58908;51.426;7.714;2023-05-10T01:46:37;98982.16;;;12.05;100.00
71195;BME280;58908;51.426;7.714;2023-05-10T01:49:07;98985.16;;;12.01;100.00
71195;BME280;58908;51.426;7.714;2023-05-10T01:51:37;98979.75;;;12.02;100.00
71195;BME280;58908;51.426;7.714;2023-05-10T01:54:05;98985.06;;;12.02;100.00
71195;BME280;58908;51.426;7.714;2023-05-10T01:56:32;98981.69;;;12.00;100.00
71195;BME280;58908;51.426;7.714;2023-05-10T01:58:59;98988.53;;;12.03;100.00
71195;BME280;58908;51.426;7.714;2023-05-10T02:01:26;98984.19;;;12.02;100.00
71195;BME280;58908;51.426;7.714;2023-05-10T02:03:53;98987.06;;;11.99;100.00
71195;BME280;58908;51.426;7.714;2023-05-10T02:06:20;98978.53;;;11.95;100.00
71195;BME280;58908;51.426;7.714;2023-05-10T02:08:48;98983.81;;;11.95;100.00
71195;BME280;58908;51.426;7.714;2023-05-10T02:11:15;98984.66;;;11.96;100.00
71195;BME280;58908;51.426;7.714;2023-05-10T02:13:43;98986.13;;;12.00;100.00
71195;BME280;58908;51.426;7.714;2023-05-10T02:16:12;98989.09;;;11.95;100.00
71195;BME280;58908;51.426;7.714;2023-05-10T02:18:39;98982.84;;;11.96;100.00
71195;BME280;58908;51.426;7.714;2023-05-10T02:21:07;98982.13;;;11.94;100.00
71195;BME280;58908;51.426;7.714;2023-05-10T02:23:34;98990.41;;;11.90;100.00
71195;BME280;58908;51.426;7.714;2023-05-10T02:26:01;98989.34;;;11.93;100.00
71195;BME280;58908;51.426;7.714;2023-05-10T02:28:28;98992.22;;;11.90;100.00
71195;BME280;58908;51.426;7.714;2023-05-10T02:30:55;98995.44;;;11.93;100.00
71195;BME280;58908;51.426;7.714;2023-05-10T02:33:22;99001.59;;;11.93;100.00
71195;BME280;58908;51.426;7.714;2023-05-10T02:35:48;99002.22;;;11.97;100.00
71195;BME280;58908;51.426;7.714;2023-05-10T02:38:16;99010.97;;;11.97;100.00
71195;BME280;58908;51.426;7.714;2023-05-10T02:40:43;99006.66;;;11.96;100.00
71195;BME280;58908;51.426;7.714;2023-05-10T02:43:12;99007.94;;;11.91;100.00
71195;BME280;58908;51.426;7.714;2023-05-10T02:45:39;99011.09;;;11.96;100.00
71195;BME280;58908;51.426;7.714;2023-05-10T02:48:06;99004.13;;;11.95;100.00
71195;BME280;58908;51.426;7.714;2023-05-10T02:50:33;99008.56;;;11.94;100.00
71195;BME280;58908;51.426;7.714;2023-05-10T02:53:00;99011.09;;;11.96;100.00
71195;BME280;58908;51.426;7.714;2023-05-10T02:55:27;99010.97;;;11.97;100.00
71195;BME280;58908;51.426;7.714;2023-05-10T02:57:58;99010.75;;;12.00;100.00
71195;BME280;58908;51.426;7.714;2023-05-10T03:00:27;99010.00;;;11.98;100.00
71195;BME280;58908;51.426;7.714;2023-05-10T03:02:53;99016.63;;;12.04;100.00
71195;BME280;58908;51.426;7.714;2023-05-10T03:05:20;99017.84;;;12.00;100.00
71195;BME280;58908;51.426;7.714;2023-05-10T03:07:46;99018.78;;;11.99;100.00
71195;BME280;58908;51.426;7.714;2023-05-10T03:10:14;99019.22;;;11.93;100.00
71195;BME280;58908;51.426;7.714;2023-05-10T03:12:47;99021.63;;;11.85;100.00
71195;BME280;58908;51.426;7.714;2023-05-10T03:15:19;99027.84;;;11.61;100.00
71195;BME280;58908;51.426;7.714;2023-05-10T03:17:52;99027.13;;;11.59;100.00
71195;BME280;58908;51.426;7.714;2023-05-10T03:20:22;99030.06;;;11.54;100.00
71195;BME280;58908;51.426;7.714;2023-05-10T03:22:51;99036.41;;;11.52;100.00
71195;BME280;58908;51.426;7.714;2023-05-10T03:25:19;99039.03;;;11.52;100.00
71195;BME280;58908;51.426;7.714;2023-05-10T03:27:46;99036.19;;;11.55;100.00
71195;BME280;58908;51.426;7.714;2023-05-10T03:30:13;99040.84;;;11.51;100.00
71195;BME280;58908;51.426;7.714;2023-05-10T03:32:40;99045.06;;;11.54;100.00
71195;BME280;58908;51.426;7.714;2023-05-10T03:35:08;99045.06;;;11.54;100.00
71195;BME280;58908;51.426;7.714;2023-05-10T03:37:34;99053.41;;;11.60;100.00
71195;BME280;58908;51.426;7.714;2023-05-10T03:40:01;99045.63;;;11.59;100.00
71195;BME280;58908;51.426;7.714;2023-05-10T03:42:27;99045.63;;;11.59;100.00
71195;BME280;58908;51.426;7.714;2023-05-10T03:44:53;99054.66;;;11.55;100.00
71195;BME280;58908;51.426;7.714;2023-05-10T03:47:27;99055.63;;;11.54;100.00
71195;BME280;58908;51.426;7.714;2023-05-10T03:49:54;99052.25;;;11.52;100.00
71195;BME280;58908;51.426;7.714;2023-05-10T03:52:22;99059.88;;;11.44;100.00
71195;BME280;58908;51.426;7.714;2023-05-10T03:54:48;99069.84;;;11.40;100.00
71195;BME280;58908;51.426;7.714;2023-05-10T03:57:14;99058.41;;;11.40;100.00
71195;BME280;58908;51.426;7.714;2023-05-10T03:59:40;99071.53;;;11.41;100.00
71195;BME280;58908;51.426;7.714;2023-05-10T04:02:07;99067.78;;;11.44;100.00
71195;BME280;58908;51.426;7.714;2023-05-10T04:04:33;99066.75;;;11.46;100.00
71195;BME280;58908;51.426;7.714;2023-05-10T04:06:59;99069.28;;;11.48;100.00
71195;BME280;58908;51.426;7.714;2023-05-10T04:09:27;99071.06;;;11.47;100.00
71195;BME280;58908;51.426;7.714;2023-05-10T04:11:53;99072.56;;;11.51;100.00
71195;BME280;58908;51.426;7.714;2023-05-10T04:14:19;99069.69;;;11.54;100.00
71195;BME280;58908;51.426;7.714;2023-05-10T04:16:46;99077.41;;;11.57;100.00
71195;BME280;58908;51.426;7.714;2023-05-10T04:19:12;99080.56;;;11.50;100.00
71195;BME280;58908;51.426;7.714;2023-05-10T04:21:38;99075.94;;;11.53;100.00
71195;BME280;58908;51.426;7.714;2023-05-10T04:24:04;99071.19;;;11.58;100.00
71195;BME280;58908;51.426;7.714;2023-05-10T04:26:32;99072.22;;;11.56;100.00
71195;BME280;58908;51.426;7.714;2023-05-10T04:28:58;99076.47;;;11.58;100.00
71195;BME280;58908;51.426;7.714;2023-05-10T04:31:25;99082.59;;;11.59;100.00
71195;BME280;58908;51.426;7.714;2023-05-10T04:33:52;99079.00;;;11.60;100.00
71195;BME280;58908;51.426;7.714;2023-05-10T04:36:18;99084.91;;;11.63;100.00
71195;BME280;58908;51.426;7.714;2023-05-10T04:38:45;99080.59;;;11.62;100.00
71195;BME280;58908;51.426;7.714;2023-05-10T04:41:11;99082.91;;;11.67;100.00
71195;BME280;58908;51.426;7.714;2023-05-10T04:43:39;99083.63;;;11.69;100.00
71195;BME280;58908;51.426;7.714;2023-05-10T04:46:05;99082.66;;;11.70;100.00
71195;BME280;58908;51.426;7.714;2023-05-10T04:48:32;99083.41;;;11.72;100.00
71195;BME280;58908;51.426;7.714;2023-05-10T04:50:58;99091.00;;;11.76;100.00
71195;BME280;58908;51.426;7.714;2023-05-10T04:53:24;99091.72;;;11.78;100.00
71195;BME280;58908;51.426;7.714;2023-05-10T04:55:51;99095.09;;;11.80;100.00
71195;BME280;58908;51.426;7.714;2023-05-10T04:58:17;99103.16;;;11.79;100.00
71195;BME280;58908;51.426;7.714;2023-05-10T05:00:44;99099.75;;;11.77;100.00
71195;BME280;58908;51.426;7.714;2023-05-10T05:03:11;99101.56;;;11.76;100.00
71195;BME280;58908;51.426;7.714;2023-05-10T05:05:37;99107.81;;;11.75;100.00
71195;BME280;58908;51.426;7.714;2023-05-10T05:08:03;99102.75;;;11.72;100.00
71195;BME280;58908;51.426;7.714;2023-05-10T05:10:29;99108.13;;;11.71;100.00
71195;BME280;58908;51.426;7.714;2023-05-10T05:12:56;99115.00;;;11.73;100.00
71195;BME280;58908;51.426;7.714;2023-05-10T05:15:22;99115.28;;;11.81;100.00
71195;BME280;58908;51.426;7.714;2023-05-10T05:17:50;99119.16;;;11.88;100.00
71195;BME280;58908;51.426;7.714;2023-05-10T05:20:16;99113.44;;;11.94;100.00
71195;BME280;58908;51.426;7.714;2023-05-10T05:22:43;99114.63;;;11.90;100.00
71195;BME280;58908;51.426;7.714;2023-05-10T05:25:10;99107.91;;;11.74;100.00
71195;BME280;58908;51.426;7.714;2023-05-10T05:27:36;99120.06;;;11.76;100.00
71195;BME280;58908;51.426;7.714;2023-05-10T05:30:03;99124.28;;;11.79;100.00
71195;BME280;58908;51.426;7.714;2023-05-10T05:32:29;99131.59;;;11.75;100.00
71195;BME280;58908;51.426;7.714;2023-05-10T05:34:57;99129.28;;;11.71;100.00
71195;BME280;58908;51.426;7.714;2023-05-10T05:37:24;99124.28;;;11.79;100.00
71195;BME280;58908;51.426;7.714;2023-05-10T05:39:50;99132.09;;;11.80;100.00
71195;BME280;58908;51.426;7.714;2023-05-10T05:42:17;99137.78;;;11.87;100.00
71195;BME280;58908;51.426;7.714;2023-05-10T05:44:43;99131.88;;;11.83;100.00
71195;BME280;58908;51.426;7.714;2023-05-10T05:47:10;99123.59;;;11.88;100.00
71195;BME280;58908;51.426;7.714;2023-05-10T05:49:36;99121.25;;;11.95;100.00
71195;BME280;58908;51.426;7.714;2023-05-10T05:52:04;99125.03;;;12.04;100.00
71195;BME280;58908;51.426;7.714;2023-05-10T05:54:30;99131.00;;;12.18;100.00
71195;BME280;58908;51.426;7.714;2023-05-10T05:56:57;99141.63;;;12.29;100.00
71195;BME280;58908;51.426;7.714;2023-05-10T05:59:24;99134.97;;;12.24;100.00
71195;BME280;58908;51.426;7.714;2023-05-10T06:01:50;99135.22;;;12.44;100.00
71195;BME280;58908;51.426;7.714;2023-05-10T06:04:17;99136.53;;;12.84;100.00
71195;BME280;58908;51.426;7.714;2023-05-10T06:06:43;99144.91;;;13.02;100.00
71195;BME280;58908;51.426;7.714;2023-05-10T06:09:11;99155.75;;;12.75;100.00
71195;BME280;58908;51.426;7.714;2023-05-10T06:11:37;99151.28;;;12.65;100.00
71195;BME280;58908;51.426;7.714;2023-05-10T06:14:04;99161.09;;;12.52;100.00
71195;BME280;58908;51.426;7.714;2023-05-10T06:16:32;99154.19;;;12.73;100.00
71195;BME280;58908;51.426;7.714;2023-05-10T06:18:58;99150.09;;;12.69;100.00
71195;BME280;58908;51.426;7.714;2023-05-10T06:21:24;99158.03;;;12.69;100.00
71195;BME280;58908;51.426;7.714;2023-05-10T06:23:51;99155.66;;;12.77;100.00
71195;BME280;58908;51.426;7.714;2023-05-10T06:26:18;99164.56;;;12.76;100.00
71195;BME280;58908;51.426;7.714;2023-05-10T06:28:45;99175.81;;;12.67;100.00
71195;BME280;58908;51.426;7.714;2023-05-10T06:31:12;99173.56;;;12.73;100.00
71195;BME280;58908;51.426;7.714;2023-05-10T06:33:38;99175.03;;;12.77;100.00
71195;BME280;58908;51.426;7.714;2023-05-10T06:36:04;99181.88;;;12.80;100.00
71195;BME280;58908;51.426;7.714;2023-05-10T06:38:31;99175.03;;;12.77;100.00
71195;BME280;58908;51.426;7.714;2023-05-10T06:40:57;99175.72;;;12.68;100.00
71195;BME280;58908;51.426;7.714;2023-05-10T06:43:25;99184.72;;;12.66;100.00
71195;BME280;58908;51.426;7.714;2023-05-10T06:45:51;99192.94;;;12.74;100.00
71195;BME280;58908;51.426;7.714;2023-05-10T06:48:17;99189.03;;;12.90;100.00
71195;BME280;58908;51.426;7.714;2023-05-10T06:50:43;99184.56;;;12.91;100.00
71195;BME280;58908;51.426;7.714;2023-05-10T06:53:10;99184.06;;;12.86;100.00
71195;BME280;58908;51.426;7.714;2023-05-10T06:55:36;99189.84;;;12.91;100.00
71195;BME280;58908;51.426;7.714;2023-05-10T06:58:03;99195.47;;;12.99;100.00
71195;BME280;58908;51.426;7.714;2023-05-10T07:00:30;99205.81;;;13.02;100.00
71195;BME280;58908;51.426;7.714;2023-05-10T07:02:57;99205.94;;;13.00;100.00
71195;BME280;58908;51.426;7.714;2023-05-10T07:05:23;99207.66;;;13.12;100.00
71195;BME280;58908;51.426;7.714;2023-05-10T07:07:49;99204.41;;;13.09;100.00
71195;BME280;58908;51.426;7.714;2023-05-10T07:10:16;99209.06;;;13.05;100.00
71195;BME280;58908;51.426;7.714;2023-05-10T07:12:42;99206.47;;;13.27;100.00
71195;BME280;58908;51.426;7.714;2023-05-10T07:15:09;99214.81;;;13.56;100.00
71195;BME280;58908;51.426;7.714;2023-05-10T07:17:37;99215.81;;;13.88;100.00
71195;BME280;58908;51.426;7.714;2023-05-10T07:20:03;99223.97;;;14.40;100.00
71195;BME280;58908;51.426;7.714;2023-05-10T07:22:30;99219.72;;;14.79;100.00
71195;BME280;58908;51.426;7.714;2023-05-10T07:24:56;99226.47;;;15.15;100.00
71195;BME280;58908;51.426;7.714;2023-05-10T07:27:22;99222.00;;;14.84;100.00
71195;BME280;58908;51.426;7.714;2023-05-10T07:29:49;99230.56;;;14.87;100.00
71195;BME280;58908;51.426;7.714;2023-05-10T07:32:15;99223.72;;;14.74;100.00
71195;BME280;58908;51.426;7.714;2023-05-10T07:34:43;99227.00;;;14.77;100.00
71195;BME280;58908;51.426;7.714;2023-05-10T07:37:09;99214.13;;;13.98;100.00
71195;BME280;58908;51.426;7.714;2023-05-10T07:39:35;99218.34;;;13.67;100.00
71195;BME280;58908;51.426;7.714;2023-05-10T07:42:02;99224.00;;;13.63;100.00
71195;BME280;58908;51.426;7.714;2023-05-10T07:44:28;99224.00;;;13.63;100.00
71195;BME280;58908;51.426;7.714;2023-05-10T07:46:55;99220.38;;;14.30;100.00
71195;BME280;58908;51.426;7.714;2023-05-10T07:49:21;99209.50;;;14.33;100.00
71195;BME280;58908;51.426;7.714;2023-05-10T07:51:50;99211.44;;;14.42;100.00
71195;BME280;58908;51.426;7.714;2023-05-10T07:54:16;99205.16;;;14.43;100.00
71195;BME280;58908;51.426;7.714;2023-05-10T07:56:43;99211.97;;;15.39;100.00
71195;BME280;58908;51.426;7.714;2023-05-10T07:59:14;99193.84;;;16.23;100.00
71195;BME280;58908;51.426;7.714;2023-05-10T08:01:43;99204.78;;;16.30;100.00
71195;BME280;58908;51.426;7.714;2023-05-10T08:04:09;99208.00;;;16.63;100.00
71195;BME280;58908;51.426;7.714;2023-05-10T08:06:36;99195.53;;;17.01;100.00
71195;BME280;58908;51.426;7.714;2023-05-10T08:09:04;99208.19;;;15.62;100.00
71195;BME280;58908;51.426;7.714;2023-05-10T08:11:30;99212.16;;;15.06;100.00
71195;BME280;58908;51.426;7.714;2023-05-10T08:13:56;99215.50;;;16.00;100.00
71195;BME280;58908;51.426;7.714;2023-05-10T08:16:22;99205.16;;;17.31;100.00
71195;BME280;58908;51.426;7.714;2023-05-10T08:18:49;99203.31;;;16.37;100.00
71195;BME280;58908;51.426;7.714;2023-05-10T08:21:15;99215.41;;;16.11;100.00
71195;BME280;58908;51.426;7.714;2023-05-10T08:23:42;99212.91;;;16.77;100.00
71195;BME280;58908;51.426;7.714;2023-05-10T08:26:10;99205.22;;;18.85;100.00
71195;BME280;58908;51.426;7.714;2023-05-10T08:28:37;99201.69;;;19.02;100.00
71195;BME280;58908;51.426;7.714;2023-05-10T08:31:03;99197.81;;;18.25;100.00
71195;BME280;58908;51.426;7.714;2023-05-10T08:33:30;99201.81;;;18.65;100.00
71195;BME280;58908;51.426;7.714;2023-05-10T08:35:56;99211.91;;;18.54;100.00
71195;BME280;58908;51.426;7.714;2023-05-10T08:38:22;99223.84;;;16.93;100.00
71195;BME280;58908;51.426;7.714;2023-05-10T08:40:49;99231.22;;;16.12;100.00
71195;BME280;58908;51.426;7.714;2023-05-10T08:43:22;99234.53;;;15.45;100.00
71195;BME280;58908;51.426;7.714;2023-05-10T08:45:51;99237.47;;;15.10;100.00
71195;BME280;58908;51.426;7.714;2023-05-10T08:48:18;99244.09;;;15.16;100.00
71195;BME280;58908;51.426;7.714;2023-05-10T08:50:45;99237.59;;;15.09;100.00
71195;BME280;58908;51.426;7.714;2023-05-10T08:53:13;99247.06;;;15.22;100.00
71195;BME280;58908;51.426;7.714;2023-05-10T08:55:39;99239.53;;;17.34;100.00
71195;BME280;58908;51.426;7.714;2023-05-10T08:58:07;99230.53;;;17.73;100.00
71195;BME280;58908;51.426;7.714;2023-05-10T09:00:35;99229.16;;;18.32;100.00
71195;BME280;58908;51.426;7.714;2023-05-10T09:03:02;99232.09;;;17.18;100.00
71195;BME280;58908;51.426;7.714;2023-05-10T09:05:29;99244.28;;;16.64;100.00
71195;BME280;58908;51.426;7.714;2023-05-10T09:07:55;99242.41;;;18.15;100.00
71195;BME280;58908;51.426;7.714;2023-05-10T09:10:22;99232.66;;;17.96;100.00
71195;BME280;58908;51.426;7.714;2023-05-10T09:12:51;99236.81;;;19.42;100.00
71195;BME280;58908;51.426;7.714;2023-05-10T09:15:17;99233.06;;;20.28;100.00
71195;BME280;58908;51.426;7.714;2023-05-10T09:17:46;99230.75;;;20.91;100.00
71195;BME280;58908;51.426;7.714;2023-05-10T09:20:13;99242.41;;;19.73;100.00
71195;BME280;58908;51.426;7.714;2023-05-10T09:22:39;99239.00;;;18.94;100.00
71195;BME280;58908;51.426;7.714;2023-05-10T09:25:06;99237.19;;;17.50;100.00
71195;BME280;58908;51.426;7.714;2023-05-10T09:27:33;99238.16;;;17.11;100.00
71195;BME280;58908;51.426;7.714;2023-05-10T09:29:59;99241.22;;;16.69;100.00
71195;BME280;58908;51.426;7.714;2023-05-10T09:32:35;99253.44;;;16.90;100.00
71195;BME280;58908;51.426;7.714;2023-05-10T09:35:07;99245.13;;;18.86;100.00
71195;BME280;58908;51.426;7.714;2023-05-10T09:37:33;99236.19;;;19.98;100.00
71195;BME280;58908;51.426;7.714;2023-05-10T09:39:59;99239.56;;;19.32;100.00
71195;BME280;58908;51.426;7.714;2023-05-10T09:42:26;99248.06;;;18.48;100.00
71195;BME280;58908;51.426;7.714;2023-05-10T09:44:52;99242.16;;;18.08;100.00
71195;BME280;58908;51.426;7.714;2023-05-10T09:47:18;99245.75;;;18.26;100.00
71195;BME280;58908;51.426;7.714;2023-05-10T09:49:45;99244.81;;;19.59;100.00
71195;BME280;58908;51.426;7.714;2023-05-10T09:52:16;99239.50;;;19.42;100.00
71195;BME280;58908;51.426;7.714;2023-05-10T09:54:44;99244.09;;;18.16;100.00
71195;BME280;58908;51.426;7.714;2023-05-10T09:57:18;99245.63;;;19.59;98.33
71195;BME280;58908;51.426;7.714;2023-05-10T09:59:44;99229.25;;;20.47;91.83
71195;BME280;58908;51.426;7.714;2023-05-10T10:02:11;99237.72;;;20.84;94.84
71195;BME280;58908;51.426;7.714;2023-05-10T10:04:38;99236.47;;;21.52;90.48
71195;BME280;58908;51.426;7.714;2023-05-10T10:07:05;99234.97;;;21.49;89.54
71195;BME280;58908;51.426;7.714;2023-05-10T10:09:33;99234.34;;;19.99;88.98
71195;BME280;58908;51.426;7.714;2023-05-10T10:12:00;99241.41;;;19.14;97.74
71195;BME280;58908;51.426;7.714;2023-05-10T10:14:27;99250.47;;;19.04;99.22
71195;BME280;58908;51.426;7.714;2023-05-10T10:16:53;99247.09;;;18.67;100.00
71195;BME280;58908;51.426;7.714;2023-05-10T10:19:20;99240.94;;;18.84;98.48
71195;BME280;58908;51.426;7.714;2023-05-10T10:21:46;99249.28;;;18.54;100.00
71195;BME280;58908;51.426;7.714;2023-05-10T10:24:13;99246.56;;;18.27;100.00
71195;BME280;58908;51.426;7.714;2023-05-10T10:26:40;99251.78;;;17.36;100.00
71195;BME280;58908;51.426;7.714;2023-05-10T10:29:10;99252.88;;;17.43;100.00
71195;BME280;58908;51.426;7.714;2023-05-10T10:31:45;99257.81;;;17.38;100.00
71195;BME280;58908;51.426;7.714;2023-05-10T10:34:17;99248.28;;;17.91;100.00
71195;BME280;58908;51.426;7.714;2023-05-10T10:36:47;99243.63;;;17.93;100.00
71195;BME280;58908;51.426;7.714;2023-05-10T10:39:14;99245.31;;;18.58;100.00
71195;BME280;58908;51.426;7.714;2023-05-10T10:41:50;99246.34;;;19.19;100.00
71195;BME280;58908;51.426;7.714;2023-05-10T10:44:26;99250.22;;;19.24;99.42
71195;BME280;58908;51.426;7.714;2023-05-10T10:46:59;99248.50;;;19.83;95.30
71195;BME280;58908;51.426;7.714;2023-05-10T10:49:26;99244.28;;;19.55;92.35
71195;BME280;58908;51.426;7.714;2023-05-10T10:54:37;99255.56;;;19.42;93.36
71195;BME280;58908;51.426;7.714;2023-05-10T10:57:11;99247.06;;;19.11;92.80
71195;BME280;58908;51.426;7.714;2023-05-10T10:59:41;99257.50;;;18.87;94.95
71195;BME280;58908;51.426;7.714;2023-05-10T11:02:07;99267.91;;;18.00;100.00
71195;BME280;58908;51.426;7.714;2023-05-10T11:04:41;99270.84;;;17.03;100.00
71195;BME280;58908;51.426;7.714;2023-05-10T11:07:17;99280.41;;;16.48;100.00
71195;BME280;58908;51.426;7.714;2023-05-10T11:09:43;99283.59;;;16.42;100.00
71195;BME280;58908;51.426;7.714;2023-05-10T11:12:11;99302.06;;;16.04;100.00
71195;BME280;58908;51.426;7.714;2023-05-10T11:14:37;99304.00;;;15.81;100.00
71195;BME280;58908;51.426;7.714;2023-05-10T11:22:27;99301.34;;;15.81;100.00
71195;BME280;58908;51.426;7.714;2023-05-10T11:24:59;99304.16;;;15.80;100.00
71195;BME280;58908;51.426;7.714;2023-05-10T11:27:28;99303.63;;;15.86;100.00
71195;BME280;58908;51.426;7.714;2023-05-10T11:29:54;99317.44;;;16.00;100.00
71195;BME280;58908;51.426;7.714;2023-05-10T11:32:21;99318.91;;;16.44;100.00
71195;BME280;58908;51.426;7.714;2023-05-10T11:34:47;99314.88;;;16.49;100.00
71195;BME280;58908;51.426;7.714;2023-05-10T11:37:14;99329.44;;;16.45;100.00
71195;BME280;58908;51.426;7.714;2023-05-10T11:39:45;99332.44;;;16.31;100.00
71195;BME280;58908;51.426;7.714;2023-05-10T11:42:12;99339.09;;;16.16;100.00
71195;BME280;58908;51.426;7.714;2023-05-10T11:44:39;99341.78;;;15.96;100.00
71195;BME280;58908;51.426;7.714;2023-05-10T11:47:06;99336.84;;;15.71;100.00
71195;BME280;58908;51.426;7.714;2023-05-10T11:49:33;99337.03;;;15.38;100.00
71195;BME280;58908;51.426;7.714;2023-05-10T11:52:05;99340.91;;;15.34;100.00
71195;BME280;58908;51.426;7.714;2023-05-10T11:54:32;99347.66;;;15.27;100.00
71195;BME280;58908;51.426;7.714;2023-05-10T11:56:59;99340.34;;;15.19;100.00
71195;BME280;58908;51.426;7.714;2023-05-10T11:59:26;99351.03;;;15.29;100.00
71195;BME280;58908;51.426;7.714;2023-05-10T12:01:53;99355.00;;;15.03;100.00
71195;BME280;58908;51.426;7.714;2023-05-10T12:04:20;99357.41;;;14.95;100.00
71195;BME280;58908;51.426;7.714;2023-05-10T12:06:46;99355.38;;;14.98;100.00
71195;BME280;58908;51.426;7.714;2023-05-10T12:09:13;99364.53;;;15.05;100.00
71195;BME280;58908;51.426;7.714;2023-05-10T12:11:39;99367.25;;;14.83;100.00
71195;BME280;58908;51.426;7.714;2023-05-10T12:14:06;99361.53;;;14.77;100.00
71195;BME280;58908;51.426;7.714;2023-05-10T12:16:32;99370.59;;;14.85;100.00
71195;BME280;58908;51.426;7.714;2023-05-10T12:19:00;99369.28;;;14.91;100.00
71195;BME280;58908;51.426;7.714;2023-05-10T12:21:27;99367.09;;;14.85;100.00
71195;BME280;58908;51.426;7.714;2023-05-10T12:23:54;99362.00;;;15.04;100.00
71195;BME280;58908;51.426;7.714;2023-05-10T12:26:21;99362.06;;;15.13;100.00
71195;BME280;58908;51.426;7.714;2023-05-10T12:28:48;99354.06;;;15.24;100.00
71195;BME280;58908;51.426;7.714;2023-05-10T12:31:14;99354.09;;;15.56;100.00
71195;BME280;58908;51.426;7.714;2023-05-10T12:33:41;99346.94;;;15.77;100.00
71195;BME280;58908;51.426;7.714;2023-05-10T12:36:09;99351.13;;;15.90;100.00
71195;BME280;58908;51.426;7.714;2023-05-10T12:38:36;99356.31;;;16.22;100.00
71195;BME280;58908;51.426;7.714;2023-05-10T12:41:04;99353.28;;;16.47;100.00
71195;BME280;58908;51.426;7.714;2023-05-10T12:43:32;99344.31;;;16.96;100.00
71195;BME280;58908;51.426;7.714;2023-05-10T12:45:58;99340.69;;;17.16;100.00
71195;BME280;58908;51.426;7.714;2023-05-10T12:48:24;99342.38;;;17.17;100.00
71195;BME280;58908;51.426;7.714;2023-05-10T12:50:51;99342.66;;;17.24;100.00
71195;BME280;58908;51.426;7.714;2023-05-10T12:53:18;99345.09;;;17.46;100.00
71195;BME280;58908;51.426;7.714;2023-05-10T12:55:45;99342.38;;;17.27;100.00
71195;BME280;58908;51.426;7.714;2023-05-10T12:58:11;99343.03;;;16.91;100.00
71195;BME280;58908;51.426;7.714;2023-05-10T13:00:37;99350.50;;;17.06;100.00